Time;durP1;ratioP1;P1;durP2;ratioP2;P2;SDS_P1;SDS_P2;PMS_P1;PMS_P2;Temp;Humidity;BMP_temperature;BMP_pressure;BME280_temperature;BME280_humidity;BME280_pressure;Samples;Min_cycle;Max_cycle;Signal;HPM_P1;HPM_P2
2021/07/13 00:00:23;;;;;;;;;;;;;;;15.85;100.00;100450.91;5051174;28;19967;-69
2021/07/13 00:02:51;;;;;;;;;;;;;;;15.85;100.00;100451.75;5051081;28;20303;-69
2021/07/13 00:05:19;;;;;;;;;;;;;;;15.83;100.00;100447.47;5051164;28;20368;-69
2021/07/13 00:07:46;;;;;;;;;;;;;;;15.82;100.00;100454.81;5049560;28;20383;-69
2021/07/13 00:10:14;;;;;;;;;;;;;;;15.82;100.00;100443.88;5053030;28;20456;-69
2021/07/13 00:12:40;;;;;;;;;;;;;;;15.81;100.00;100452.25;5054811;28;20014;-69
2021/07/13 00:15:08;;;;;;;;;;;;;;;15.76;100.00;100454.59;5054828;28;19925;-69
2021/07/13 00:17:34;;;;;;;;;;;;;;;15.70;100.00;100450.63;5054591;28;19964;-69
2021/07/13 00:20:02;;;;;;;;;;;;;;;15.68;100.00;100455.41;5054812;28;20016;-69
2021/07/13 00:22:28;;;;;;;;;;;;;;;15.63;100.00;100444.09;5054736;28;20019;-69
2021/07/13 00:24:54;;;;;;;;;;;;;;;15.61;100.00;100443.44;5054697;28;19975;-69
2021/07/13 00:27:20;;;;;;;;;;;;;;;15.60;100.00;100447.19;5054553;28;20015;-69
2021/07/13 00:29:47;;;;;;;;;;;;;;;15.57;100.00;100448.38;5053341;28;19994;-70
2021/07/13 00:32:13;;;;;;;;;;;;;;;15.55;100.00;100444.91;5054235;28;19968;-69
2021/07/13 00:34:39;;;;;;;;;;;;;;;15.49;100.00;100448.34;5054278;28;19960;-69
2021/07/13 00:37:07;;;;;;;;;;;;;;;15.43;100.00;100438.88;5054374;28;19968;-69
2021/07/13 00:39:33;;;;;;;;;;;;;;;15.42;100.00;100445.38;5054347;28;19956;-69
2021/07/13 00:41:59;;;;;;;;;;;;;;;15.40;100.00;100444.69;5054264;28;19979;-69
2021/07/13 00:44:26;;;;;;;;;;;;;;;15.36;100.00;100433.19;5054509;28;20380;-69
2021/07/13 00:46:52;;;;;;;;;;;;;;;15.37;100.00;100443.13;5054015;28;19979;-70
2021/07/13 00:49:19;;;;;;;;;;;;;;;15.38;100.00;100436.66;5053961;28;19975;-70
2021/07/13 00:51:45;;;;;;;;;;;;;;;15.38;100.00;100444.00;5053997;28;19975;-69
2021/07/13 00:54:13;;;;;;;;;;;;;;;15.37;100.00;100445.03;5054051;28;20010;-69
2021/07/13 00:56:41;;;;;;;;;;;;;;;15.34;100.00;100437.13;5054005;28;20450;-69
2021/07/13 00:59:07;;;;;;;;;;;;;;;15.33;100.00;100443.63;5054075;28;20015;-69
2021/07/13 01:01:35;;;;;;;;;;;;;;;15.31;100.00;100437.44;5053909;28;19929;-70
2021/07/13 01:04:02;;;;;;;;;;;;;;;15.27;100.00;100430.59;5054008;28;20410;-69
2021/07/13 01:06:34;;;;;;;;;;;;;;;15.28;100.00;100435.91;5053838;28;20020;-69
2021/07/13 01:09:04;;;;;;;;;;;;;;;15.28;100.00;100435.06;5053701;28;19954;-69
2021/07/13 01:11:36;;;;;;;;;;;;;;;15.26;100.00;100432.50;5053515;28;20348;-69
2021/07/13 01:14:04;;;;;;;;;;;;;;;15.21;100.00;100432.97;5053796;28;19970;-69
2021/07/13 01:16:34;;;;;;;;;;;;;;;15.21;100.00;100437.59;5053638;28;20428;-69
2021/07/13 01:19:09;;;;;;;;;;;;;;;15.14;100.00;100434.63;5053664;28;19959;-69
2021/07/13 01:21:38;;;;;;;;;;;;;;;15.09;100.00;100430.69;5072145;28;20431;-69
2021/07/13 01:24:19;;;;;;;;;;;;;;;15.07;100.00;100428.09;5073521;28;19960;-69
2021/07/13 01:26:50;;;;;;;;;;;;;;;15.03;100.00;100423.97;5072854;28;20015;-69
2021/07/13 01:29:19;;;;;;;;;;;;;;;15.02;100.00;100425.84;5072140;28;20431;-69
2021/07/13 01:31:46;;;;;;;;;;;;;;;15.02;100.00;100428.59;5072211;28;19960;-69
2021/07/13 01:34:15;;;;;;;;;;;;;;;15.00;100.00;100427.03;5073247;28;19929;-69
2021/07/13 01:36:44;;;;;;;;;;;;;;;15.00;100.00;100422.41;5073223;28;19925;-69
2021/07/13 01:39:11;;;;;;;;;;;;;;;14.98;100.00;100420.84;5071946;28;19925;-69
2021/07/13 01:41:37;;;;;;;;;;;;;;;14.98;100.00;100416.25;5071976;28;19928;-69
2021/07/13 01:44:04;;;;;;;;;;;;;;;15.02;100.00;100419.53;5073200;28;20013;-69
2021/07/13 01:46:33;;;;;;;;;;;;;;;15.03;100.00;100419.38;5075637;28;19967;-69
2021/07/13 01:48:59;;;;;;;;;;;;;;;14.98;100.00;100418.13;5072808;28;19970;-69
2021/07/13 01:51:26;;;;;;;;;;;;;;;14.93;100.00;100417.78;5072881;28;20307;-69
2021/07/13 01:53:53;;;;;;;;;;;;;;;14.89;100.00;100411.75;5072272;28;19971;-69
2021/07/13 01:56:20;;;;;;;;;;;;;;;14.87;100.00;100411.03;5072168;28;19928;-69
2021/07/13 01:58:47;;;;;;;;;;;;;;;14.89;100.00;100409.03;5072787;28;19985;-70
2021/07/13 02:01:14;;;;;;;;;;;;;;;14.87;100.00;100406.47;5072596;28;20019;-69
2021/07/13 02:03:44;;;;;;;;;;;;;;;14.88;100.00;100407.31;5072523;28;19976;-69
2021/07/13 02:06:11;;;;;;;;;;;;;;;14.90;100.00;100402.53;5072876;28;20027;-69
2021/07/13 02:08:38;;;;;;;;;;;;;;;14.88;100.00;100405.44;5072533;28;20417;-69
2021/07/13 02:11:05;;;;;;;;;;;;;;;14.88;100.00;100407.31;5072735;28;19924;-69
2021/07/13 02:13:31;;;;;;;;;;;;;;;14.87;100.00;100409.19;5072517;28;19925;-69
2021/07/13 02:15:59;;;;;;;;;;;;;;;14.88;100.00;100412.75;5072590;28;20178;-69
2021/07/13 02:18:26;;;;;;;;;;;;;;;14.82;100.00;100408.81;5072402;28;19928;-70
2021/07/13 02:20:53;;;;;;;;;;;;;;;14.78;100.00;100407.41;5072359;28;19964;-69
2021/07/13 02:23:20;;;;;;;;;;;;;;;14.74;100.00;100406.03;5072510;28;20395;-69
2021/07/13 02:25:48;;;;;;;;;;;;;;;14.76;100.00;100405.84;5072151;28;19947;-69
2021/07/13 02:28:16;;;;;;;;;;;;;;;14.77;100.00;100410.31;5072389;28;19955;-69
2021/07/13 02:30:44;;;;;;;;;;;;;;;14.78;100.00;100412.88;5072173;28;20295;-69
2021/07/13 02:33:13;;;;;;;;;;;;;;;14.77;100.00;100413.88;5071637;28;20460;-69
2021/07/13 02:35:40;;;;;;;;;;;;;;;14.73;100.00;100418.81;5071785;28;20686;-69
2021/07/13 02:38:09;;;;;;;;;;;;;;;14.73;100.00;100412.50;5071568;28;20026;-69
2021/07/13 02:40:35;;;;;;;;;;;;;;;14.69;100.00;100411.94;5072000;28;20473;-69
2021/07/13 02:43:02;;;;;;;;;;;;;;;14.66;100.00;100404.09;5072164;28;19960;-69
2021/07/13 02:45:29;;;;;;;;;;;;;;;14.65;100.00;100412.44;5071894;28;19970;-69
2021/07/13 02:47:55;;;;;;;;;;;;;;;14.63;100.00;100408.97;5071977;28;19974;-69
2021/07/13 02:50:23;;;;;;;;;;;;;;;14.62;100.00;100407.25;5072103;28;20383;-69
2021/07/13 02:52:50;;;;;;;;;;;;;;;14.56;100.00;100406.88;5071690;28;20379;-69
2021/07/13 02:55:19;;;;;;;;;;;;;;;14.56;100.00;100403.28;5071686;28;20000;-69
2021/07/13 02:57:46;;;;;;;;;;;;;;;14.54;100.00;100402.59;5071460;28;20022;-69
2021/07/13 03:00:14;;;;;;;;;;;;;;;14.55;100.00;100407.91;5071961;28;20376;-69
2021/07/13 03:02:42;;;;;;;;;;;;;;;14.56;100.00;100406.88;5071590;28;19982;-69
2021/07/13 03:05:11;;;;;;;;;;;;;;;14.56;100.00;100400.53;5071700;28;19978;-69
2021/07/13 03:07:37;;;;;;;;;;;;;;;14.55;100.00;100398.81;5071604;28;19970;-69
2021/07/13 03:10:04;;;;;;;;;;;;;;;14.59;100.00;100404.84;5071661;28;19928;-70
2021/07/13 03:12:32;;;;;;;;;;;;;;;14.65;100.00;100398.78;5071605;28;19924;-69
2021/07/13 03:14:59;;;;;;;;;;;;;;;14.69;100.00;100391.97;5070345;28;20028;-69
2021/07/13 03:17:26;;;;;;;;;;;;;;;14.73;100.00;100398.84;5071278;28;20396;-69
2021/07/13 03:19:53;;;;;;;;;;;;;;;14.76;100.00;100406.69;5071561;28;20366;-69
2021/07/13 03:22:21;;;;;;;;;;;;;;;14.79;100.00;100408.25;5071282;28;19924;-69
2021/07/13 03:24:49;;;;;;;;;;;;;;;14.83;100.00;100396.00;5071397;28;20019;-69
2021/07/13 03:27:16;;;;;;;;;;;;;;;14.89;100.00;100398.09;5071210;28;20455;-69
2021/07/13 03:29:44;;;;;;;;;;;;;;;14.93;100.00;100395.91;5071093;28;19975;-70
2021/07/13 03:32:12;;;;;;;;;;;;;;;15.00;100.00;100395.06;5071380;28;19925;-69
2021/07/13 03:34:39;;;;;;;;;;;;;;;15.05;100.00;100397.34;5071277;28;19962;-69
2021/07/13 03:37:06;;;;;;;;;;;;;;;15.07;100.00;100385.22;5071139;28;20367;-69
2021/07/13 03:39:32;;;;;;;;;;;;;;;15.15;100.00;100381.69;5071293;28;19971;-70
2021/07/13 03:41:59;;;;;;;;;;;;;;;15.18;100.00;100385.97;5071519;28;19924;-69
2021/07/13 03:44:25;;;;;;;;;;;;;;;15.25;100.00;100384.28;5072097;28;19964;-69
2021/07/13 03:46:53;;;;;;;;;;;;;;;15.32;100.00;100393.53;5074076;28;20286;-71
2021/07/13 03:49:23;;;;;;;;;;;;;;;15.40;100.00;100393.56;5079647;28;19967;-69
2021/07/13 03:51:49;;;;;;;;;;;;;;;15.47;100.00;100391.03;5075041;28;19924;-69
2021/07/13 03:54:17;;;;;;;;;;;;;;;15.54;100.00;100397.56;5075114;28;20232;-70
2021/07/13 03:56:44;;;;;;;;;;;;;;;15.65;100.00;100395.56;5075079;28;20011;-70
2021/07/13 03:59:10;;;;;;;;;;;;;;;15.78;100.00;100404.16;5075453;28;20383;-70
2021/07/13 04:01:37;;;;;;;;;;;;;;;15.90;100.00;100399.25;5074988;28;19961;-71
2021/07/13 04:04:05;;;;;;;;;;;;;;;15.96;100.00;100400.47;5076342;28;19971;-70
2021/07/13 04:06:32;;;;;;;;;;;;;;;16.06;100.00;100401.16;5076435;28;20015;-70
2021/07/13 04:08:58;;;;;;;;;;;;;;;16.13;100.00;100385.78;5075912;28;19979;-70
2021/07/13 04:11:24;;;;;;;;;;;;;;;16.20;100.00;100396.91;5089458;28;19975;-70
2021/07/13 04:13:51;;;;;;;;;;;;;;;16.32;100.00;100389.22;5093507;28;19960;-70
2021/07/13 04:16:17;;;;;;;;;;;;;;;16.41;100.00;100385.47;5093197;28;20019;-70
2021/07/13 04:18:43;;;;;;;;;;;;;;;16.49;100.00;100385.44;5094659;28;20022;-70
2021/07/13 04:21:11;;;;;;;;;;;;;;;16.57;100.00;100373.63;5083764;28;20461;-70
2021/07/13 04:23:37;;;;;;;;;;;;;;;16.61;100.00;100383.22;5056601;28;20019;-70
2021/07/13 04:26:04;;;;;;;;;;;;;;;16.69;100.00;100376.88;5079240;28;19955;-70
2021/07/13 04:28:31;;;;;;;;;;;;;;;16.73;100.00;100376.34;5094628;28;20376;-70
2021/07/13 04:30:59;;;;;;;;;;;;;;;16.77;100.00;100381.47;5086254;28;19924;-70
2021/07/13 04:33:25;;;;;;;;;;;;;;;16.84;100.00;100377.88;5074429;28;20019;-70
2021/07/13 04:35:52;;;;;;;;;;;;;;;16.90;100.00;100373.59;5084367;28;19928;-70
2021/07/13 04:38:20;;;;;;;;;;;;;;;16.96;100.00;100369.31;5079595;28;19978;-70
2021/07/13 04:40:46;;;;;;;;;;;;;;;17.04;100.00;100366.56;5080105;28;19924;-70
2021/07/13 04:43:13;;;;;;;;;;;;;;;17.05;100.00;100373.75;5087754;28;19955;-70
2021/07/13 04:45:39;;;;;;;;;;;;;;;17.08;100.00;100365.16;5074632;28;19978;-70
2021/07/13 04:48:06;;;;;;;;;;;;;;;17.15;100.00;100368.91;5074384;28;19930;-70
2021/07/13 04:50:32;;;;;;;;;;;;;;;17.24;100.00;100367.00;5078490;28;20008;-70
2021/07/13 04:52:58;;;;;;;;;;;;;;;17.32;100.00;100371.63;5083139;28;19964;-71
2021/07/13 04:55:26;;;;;;;;;;;;;;;17.42;100.00;100361.25;5074232;28;20400;-71
2021/07/13 04:57:53;;;;;;;;;;;;;;;17.53;100.00;100360.00;5075229;28;19931;-70
2021/07/13 05:00:19;;;;;;;;;;;;;;;17.67;100.00;100355.66;5087844;28;20401;-71
2021/07/13 05:02:45;;;;;;;;;;;;;;;17.78;100.00;100362.63;5093262;28;20391;-70
2021/07/13 05:05:14;;;;;;;;;;;;;;;17.89;100.00;100365.81;5073447;28;19994;-71
2021/07/13 05:07:40;;;;;;;;;;;;;;;18.03;100.00;100363.34;5073622;28;19925;-70
2021/07/13 05:10:07;;;;;;;;;;;;;;;18.15;100.00;100361.88;5092433;28;19959;-72
2021/07/13 05:12:35;;;;;;;;;;;;;;;18.28;100.00;100376.91;5093896;28;20399;-72
2021/07/13 05:15:01;;;;;;;;;;;;;;;18.37;100.00;100373.91;5083107;28;19985;-71
2021/07/13 05:17:27;;;;;;;;;;;;;;;18.50;100.00;100380.69;5077798;28;19963;-71
2021/07/13 05:19:54;;;;;;;;;;;;;;;18.68;100.00;100374.81;5081189;28;20387;-71
2021/07/13 05:22:20;;;;;;;;;;;;;;;18.81;100.00;100383.28;5084703;28;19928;-70
2021/07/13 05:24:46;;;;;;;;;;;;;;;19.02;100.00;100384.50;5091000;28;19924;-70
2021/07/13 05:27:13;;;;;;;;;;;;;;;19.19;100.00;100383.28;5079867;28;19967;-70
2021/07/13 05:29:41;;;;;;;;;;;;;;;19.39;100.00;100371.69;5073487;28;19924;-70
2021/07/13 05:32:07;;;;;;;;;;;;;;;19.55;100.00;100376.97;5074511;28;20410;-70
2021/07/13 05:34:34;;;;;;;;;;;;;;;19.74;100.00;100370.00;5074187;28;20382;-69
2021/07/13 05:37:00;;;;;;;;;;;;;;;19.97;100.00;100368.19;5087508;28;19924;-70
2021/07/13 05:39:27;;;;;;;;;;;;;;;20.12;100.00;100374.47;5073201;28;20359;-70
2021/07/13 05:41:55;;;;;;;;;;;;;;;20.27;100.00;100357.91;5072881;28;19928;-70
2021/07/13 05:44:21;;;;;;;;;;;;;;;20.44;100.00;100363.97;5067780;28;19977;-69
2021/07/13 05:46:49;;;;;;;;;;;;;;;20.57;100.00;100360.47;5072443;28;19925;-69
2021/07/13 05:49:15;;;;;;;;;;;;;;;20.69;100.00;100350.63;5073281;28;20354;-69
2021/07/13 05:51:43;;;;;;;;;;;;;;;20.83;100.00;100356.25;5074871;28;19924;-70
2021/07/13 05:54:10;;;;;;;;;;;;;;;21.00;100.00;100357.63;5071417;28;19926;-70
2021/07/13 05:56:36;;;;;;;;;;;;;;;21.30;100.00;100354.66;5073561;28;20356;-70
2021/07/13 05:59:03;;;;;;;;;;;;;;;21.60;100.00;100351.63;5071161;28;19964;-70
2021/07/13 06:01:29;;;;;;;;;;;;;;;21.87;100.00;100343.41;5071532;28;20533;-69
2021/07/13 06:03:56;;;;;;;;;;;;;;;22.17;100.00;100340.31;5080781;28;20027;-69
2021/07/13 06:06:23;;;;;;;;;;;;;;;22.62;100.00;100339.69;5074603;28;19963;-69
2021/07/13 06:08:49;;;;;;;;;;;;;;;22.99;100.00;100334.53;5073759;28;19928;-69
2021/07/13 06:11:17;;;;;;;;;;;;;;;23.29;100.00;100339.59;5076209;28;20395;-70
2021/07/13 06:13:43;;;;;;;;;;;;;;;23.50;100.00;100330.97;5089753;28;19947;-69
2021/07/13 06:16:10;;;;;;;;;;;;;;;23.75;100.00;100324.69;5073302;28;19928;-69
2021/07/13 06:18:36;;;;;;;;;;;;;;;23.99;100.00;100325.03;5073688;28;19968;-69
2021/07/13 06:21:05;;;;;;;;;;;;;;;24.44;100.00;100322.13;5088897;28;20022;-69
2021/07/13 06:23:31;;;;;;;;;;;;;;;24.82;100.00;100323.94;5083604;28;19985;-70
2021/07/13 06:25:58;;;;;;;;;;;;;;;25.05;100.00;100311.31;5072208;28;19968;-69
2021/07/13 06:28:24;;;;;;;;;;;;;;;25.34;100.00;100314.44;5069010;28;19964;-70
2021/07/13 06:30:51;;;;;;;;;;;;;;;25.65;100.00;100316.16;5068902;28;19973;-69
2021/07/13 06:33:17;;;;;;;;;;;;;;;25.86;100.00;100312.00;5081995;28;20019;-69
2021/07/13 06:35:45;;;;;;;;;;;;;;;26.28;100.00;100311.19;5091808;28;20423;-69
2021/07/13 06:38:13;;;;;;;;;;;;;;;26.20;100.00;100315.19;5081481;28;19931;-69
2021/07/13 06:40:39;;;;;;;;;;;;;;;26.33;100.00;100310.47;5086850;28;20475;-69
2021/07/13 06:43:05;;;;;;;;;;;;;;;26.31;100.00;100309.84;5089841;28;19963;-69
2021/07/13 06:45:32;;;;;;;;;;;;;;;26.43;100.00;100307.97;5075477;28;19974;-68
2021/07/13 06:47:58;;;;;;;;;;;;;;;26.73;100.00;100302.31;5071573;28;20448;-68
2021/07/13 06:50:25;;;;;;;;;;;;;;;27.01;100.00;100305.44;5072498;28;19964;-69
2021/07/13 06:52:51;;;;;;;;;;;;;;;27.41;100.00;100304.66;5080596;28;19993;-69
2021/07/13 06:55:21;;;;;;;;;;;;;;;27.70;100.00;100299.09;5084976;28;20318;-69
2021/07/13 06:57:47;;;;;;;;;;;;;;;28.03;100.00;100295.59;5071151;28;19989;-69
2021/07/13 07:00:14;;;;;;;;;;;;;;;28.32;100.00;100297.47;5072814;28;19955;-69
2021/07/13 07:02:40;;;;;;;;;;;;;;;28.45;100.00;100290.69;5071175;28;19979;-69
2021/07/13 07:05:07;;;;;;;;;;;;;;;28.45;100.00;100291.53;5073781;28;19960;-70
2021/07/13 07:07:33;;;;;;;;;;;;;;;28.30;100.00;100294.06;5091460;28;19924;-69
2021/07/13 07:09:59;;;;;;;;;;;;;;;28.33;100.00;100288.00;5089858;28;20017;-69
2021/07/13 07:12:27;;;;;;;;;;;;;;;28.79;100.00;100288.72;5077052;28;20261;-69
2021/07/13 07:14:53;;;;;;;;;;;;;;;28.96;100.00;100290.66;5089831;28;19928;-69
2021/07/13 07:17:20;;;;;;;;;;;;;;;29.29;100.00;100288.88;5085348;28;20026;-70
2021/07/13 07:19:46;;;;;;;;;;;;;;;29.44;100.00;100279.84;5071094;28;20464;-69
2021/07/13 07:22:12;;;;;;;;;;;;;;;29.69;100.00;100284.88;5071275;28;19998;-69
2021/07/13 07:24:38;;;;;;;;;;;;;;;29.62;100.00;100281.44;5078755;28;20402;-69
2021/07/13 07:27:05;;;;;;;;;;;;;;;29.85;100.00;100280.28;5073772;28;19975;-69
2021/07/13 07:29:32;;;;;;;;;;;;;;;30.04;100.00;100278.84;5076368;28;19963;-69
2021/07/13 07:31:59;;;;;;;;;;;;;;;30.19;100.00;100291.28;5070505;28;19932;-69
2021/07/13 07:34:25;;;;;;;;;;;;;;;30.22;100.00;100283.19;5071325;28;19956;-69
2021/07/13 07:36:51;;;;;;;;;;;;;;;30.28;100.00;100286.88;5070892;28;20434;-70
2021/07/13 07:39:18;;;;;;;;;;;;;;;30.36;100.00;100289.19;5076881;28;20366;-68
2021/07/13 07:41:44;;;;;;;;;;;;;;;30.36;100.00;100285.56;5090898;28;20018;-69
2021/07/13 07:44:10;;;;;;;;;;;;;;;30.30;100.00;100286.63;5077071;28;19960;-70
2021/07/13 07:46:41;;;;;;;;;;;;;;;30.16;100.00;100275.88;5070815;28;20364;-69
2021/07/13 07:49:08;;;;;;;;;;;;;;;30.30;100.00;100276.25;5090213;28;20458;-67
2021/07/13 07:51:34;;;;;;;;;;;;;;;30.71;100.00;100276.59;5091079;28;20323;-67
2021/07/13 07:54:00;;;;;;;;;;;;;;;30.55;100.00;100269.22;5089547;28;19935;-67
2021/07/13 07:56:27;;;;;;;;;;;;;;;29.17;99.01;100270.28;5090054;28;19924;-67
2021/07/13 07:58:53;;;;;;;;;;;;;;;29.45;100.00;100275.94;5075341;28;19990;-68
2021/07/13 08:01:19;;;;;;;;;;;;;;;29.30;98.71;100276.59;5075093;28;19931;-68
2021/07/13 08:03:47;;;;;;;;;;;;;;;29.61;100.00;100280.63;5070628;28;19925;-68
2021/07/13 08:06:13;;;;;;;;;;;;;;;29.52;96.89;100285.81;5085705;28;19924;-68
2021/07/13 08:08:39;;;;;;;;;;;;;;;28.91;98.97;100271.88;5090738;28;20024;-69
2021/07/13 08:11:06;;;;;;;;;;;;;;;28.76;100.00;100274.47;5077321;28;20401;-68
2021/07/13 08:13:32;;;;;;;;;;;;;;;28.98;100.00;100271.69;5079058;28;19999;-69
2021/07/13 08:15:58;;;;;;;;;;;;;;;29.63;100.00;100278.38;5070578;28;19925;-68
2021/07/13 08:18:24;;;;;;;;;;;;;;;29.99;99.62;100272.34;5078791;28;19932;-68
2021/07/13 08:20:52;;;;;;;;;;;;;;;30.04;100.00;100278.00;5091040;28;19943;-68
2021/07/13 08:23:18;;;;;;;;;;;;;;;30.43;95.98;100269.38;5090323;28;19928;-69
2021/07/13 08:25:45;;;;;;;;;;;;;;;30.83;97.25;100267.97;5090216;28;20017;-69
2021/07/13 08:28:11;;;;;;;;;;;;;;;31.55;96.25;100276.75;5082388;28;19970;-69
2021/07/13 08:30:37;;;;;;;;;;;;;;;31.16;77.86;100268.75;5091661;28;20363;-69
2021/07/13 08:33:04;;;;;;;;;;;;;;;30.98;84.62;100269.19;5084846;28;19963;-69
2021/07/13 08:35:30;;;;;;;;;;;;;;;30.96;85.59;100268.59;5094662;28;19931;-69
2021/07/13 08:37:58;;;;;;;;;;;;;;;30.47;88.46;100266.91;5076086;28;20030;-69
2021/07/13 08:40:24;;;;;;;;;;;;;;;29.81;97.11;100268.81;5080730;28;19960;-69
2021/07/13 08:42:51;;;;;;;;;;;;;;;30.39;93.60;100259.81;5079773;28;19928;-69
2021/07/13 08:45:19;;;;;;;;;;;;;;;31.21;87.71;100256.72;5076698;28;20015;-70
2021/07/13 08:47:48;;;;;;;;;;;;;;;30.88;79.25;100262.41;5073125;28;19925;-69
2021/07/13 08:50:15;;;;;;;;;;;;;;;31.27;73.07;100263.16;5089654;28;19969;-69
2021/07/13 08:52:41;;;;;;;;;;;;;;;30.97;73.34;100259.09;5077886;28;19963;-69
2021/07/13 08:55:10;;;;;;;;;;;;;;;31.31;78.88;100253.94;5077580;28;20285;-69
2021/07/13 08:57:37;;;;;;;;;;;;;;;31.42;78.72;100263.25;5073528;28;20214;-69
2021/07/13 09:00:04;;;;;;;;;;;;;;;31.68;75.39;100260.53;5080478;28;19924;-69
2021/07/13 09:02:30;;;;;;;;;;;;;;;32.16;79.54;100264.00;5078312;28;20447;-69
2021/07/13 09:04:57;;;;;;;;;;;;;;;32.81;65.39;100249.31;5089064;28;19928;-69
2021/07/13 09:07:23;;;;;;;;;;;;;;;32.45;55.44;100249.38;5075288;28;20018;-69
2021/07/13 09:09:52;;;;;;;;;;;;;;;32.62;56.73;100246.25;5073657;28;19964;-70
2021/07/13 09:12:21;;;;;;;;;;;;;;;32.66;66.52;100247.38;5073728;28;20243;-69
2021/07/13 09:14:52;;;;;;;;;;;;;;;32.42;73.01;100246.28;5074433;28;19930;-69
2021/07/13 09:17:28;;;;;;;;;;;;;;;32.03;71.27;100242.91;5073571;28;20361;-69
2021/07/13 09:19:58;;;;;;;;;;;;;;;31.76;73.00;100245.94;5077096;28;19959;-69
2021/07/13 09:22:24;;;;;;;;;;;;;;;32.03;69.48;100244.88;5092294;28;19931;-68
2021/07/13 09:24:50;;;;;;;;;;;;;;;32.22;71.13;100239.56;5093099;28;19972;-68
2021/07/13 09:27:18;;;;;;;;;;;;;;;32.72;65.71;100228.56;5093453;28;19963;-69
2021/07/13 09:29:47;;;;;;;;;;;;;;;32.03;63.04;100236.47;5084471;28;19952;-68
2021/07/13 09:32:17;;;;;;;;;;;;;;;31.79;69.00;100234.19;5072515;28;19928;-68
2021/07/13 09:34:46;;;;;;;;;;;;;;;32.04;62.86;100236.19;5078217;28;20425;-68
2021/07/13 09:37:20;;;;;;;;;;;;;;;32.05;63.06;100237.00;5092487;28;19963;-69
2021/07/13 09:39:54;;;;;;;;;;;;;;;31.61;58.09;100227.13;5093221;28;20413;-69
2021/07/13 09:42:21;;;;;;;;;;;;;;;31.00;61.21;100220.19;5076370;28;19983;-69
2021/07/13 09:44:49;;;;;;;;;;;;;;;30.05;74.72;100227.38;5080442;28;19963;-69
2021/07/13 09:47:27;;;;;;;;;;;;;;;30.51;71.72;100229.69;5056407;28;19964;-69
2021/07/13 09:49:53;;;;;;;;;;;;;;;31.18;73.01;100227.28;5057002;28;19979;-68
2021/07/13 09:52:23;;;;;;;;;;;;;;;31.67;70.76;100214.00;5091994;28;19924;-68
2021/07/13 09:54:49;;;;;;;;;;;;;;;32.65;67.33;100217.59;5090080;28;19988;-68
2021/07/13 09:57:16;;;;;;;;;;;;;;;31.96;57.42;100228.28;5072412;28;20384;-68
2021/07/13 09:59:43;;;;;;;;;;;;;;;31.78;70.60;100221.28;5090975;28;20122;-69
2021/07/13 10:02:11;;;;;;;;;;;;;;;31.68;64.11;100219.31;5068085;28;20043;-68
2021/07/13 10:04:38;;;;;;;;;;;;;;;32.00;63.71;100218.22;5064737;28;19924;-68
2021/07/13 10:07:06;;;;;;;;;;;;;;;31.29;64.01;100208.53;5072420;28;19928;-68
2021/07/13 10:09:34;;;;;;;;;;;;;;;30.94;62.42;100210.06;5072418;28;19970;-68
2021/07/13 10:12:00;;;;;;;;;;;;;;;30.66;69.06;100212.16;5090029;28;19977;-69
2021/07/13 10:14:26;;;;;;;;;;;;;;;30.62;69.75;100211.00;5092976;28;19924;-68
2021/07/13 10:16:53;;;;;;;;;;;;;;;30.34;75.80;100212.19;5074955;28;20459;-67
2021/07/13 10:19:21;;;;;;;;;;;;;;;30.88;73.95;100216.72;5087877;28;20375;-67
2021/07/13 10:21:49;;;;;;;;;;;;;;;31.09;65.82;100206.50;5092050;28;19986;-68
2021/07/13 10:24:16;;;;;;;;;;;;;;;31.71;64.19;100206.69;5090523;28;20007;-68
2021/07/13 10:26:43;;;;;;;;;;;;;;;32.32;58.33;100207.84;5084809;28;20020;-67
2021/07/13 10:29:28;;;;;;;;;;;;;;;33.11;55.61;100202.59;5072107;28;19925;-68
2021/07/13 10:31:54;;;;;;;;;;;;;;;33.42;56.46;100210.88;5071880;28;19971;-68
2021/07/13 10:34:35;;;;;;;;;;;;;;;33.44;52.96;100204.97;5077714;28;19960;-69
2021/07/13 10:37:17;;;;;;;;;;;;;;;32.54;59.02;100208.34;5091686;28;19978;-68
2021/07/13 10:39:47;;;;;;;;;;;;;;;32.64;52.21;100201.84;5080088;28;21645;-69
2021/07/13 10:42:36;;;;;;;;;;;;;;;31.94;56.20;100210.09;5071858;28;19976;-69
2021/07/13 10:45:13;;;;;;;;;;;;;;;32.42;67.67;100199.41;5072916;28;19959;-69
2021/07/13 10:47:54;;;;;;;;;;;;;;;32.14;60.41;100209.25;5071353;28;20336;-69
2021/07/13 10:50:32;;;;;;;;;;;;;;;33.18;63.03;100199.47;5085729;28;20395;-68
2021/07/13 10:53:00;;;;;;;;;;;;;;;34.17;60.73;100195.69;5091461;28;20379;-68
2021/07/13 10:55:44;;;;;;;;;;;;;;;34.89;52.09;100196.09;5090321;28;19924;-70
2021/07/13 10:58:21;;;;;;;;;;;;;;;34.37;48.68;100186.25;5091820;28;19978;-69
2021/07/13 11:01:02;;;;;;;;;;;;;;;32.88;54.39;100192.81;5073321;28;19925;-68
2021/07/13 11:03:49;;;;;;;;;;;;;;;32.91;53.42;100197.03;5071767;28;20377;-68
2021/07/13 11:06:16;;;;;;;;;;;;;;;33.00;50.57;100192.50;5090952;28;20010;-69
2021/07/13 11:08:52;;;;;;;;;;;;;;;33.10;50.81;100194.41;5078212;28;20399;-69
2021/07/13 11:11:35;;;;;;;;;;;;;;;33.23;49.56;100188.16;5071516;28;19968;-69
2021/07/13 11:14:02;;;;;;;;;;;;;;;33.40;52.00;100192.63;5072567;28;20062;-68
2021/07/13 11:16:31;;;;;;;;;;;;;;;31.37;50.53;100187.53;5071482;28;20307;-69
2021/07/13 11:18:57;;;;;;;;;;;;;;;30.63;64.50;100192.25;5072778;28;20039;-69
2021/07/13 11:21:25;;;;;;;;;;;;;;;30.30;73.29;100197.06;5088759;28;19963;-69
2021/07/13 11:23:53;;;;;;;;;;;;;;;30.20;76.93;100190.28;5070734;28;19956;-69
2021/07/13 11:26:21;;;;;;;;;;;;;;;31.37;69.77;100193.13;5070513;28;19924;-69
2021/07/13 11:28:47;;;;;;;;;;;;;;;31.95;63.39;100186.50;5072168;28;20024;-69
2021/07/13 11:31:19;;;;;;;;;;;;;;;31.62;64.12;100189.56;5074898;28;19924;-70
2021/07/13 11:33:53;;;;;;;;;;;;;;;31.08;76.18;100184.34;5071102;28;19925;-70
2021/07/13 11:36:26;;;;;;;;;;;;;;;30.54;73.41;100181.56;5071363;28;19925;-69
2021/07/13 11:38:53;;;;;;;;;;;;;;;30.20;75.59;100179.09;5070652;28;20387;-69
2021/07/13 11:41:20;;;;;;;;;;;;;;;30.02;78.35;100174.72;5072287;28;19978;-69
2021/07/13 11:43:51;;;;;;;;;;;;;;;30.53;69.78;100174.28;5081372;28;19924;-68
2021/07/13 11:46:19;;;;;;;;;;;;;;;31.37;61.02;100170.69;5084421;28;19924;-68
2021/07/13 11:48:55;;;;;;;;;;;;;;;32.18;65.13;100168.28;5071253;28;19964;-68
2021/07/13 11:51:25;;;;;;;;;;;;;;;33.00;57.85;100165.22;5064422;28;19928;-67
2021/07/13 11:53:58;;;;;;;;;;;;;;;33.04;53.22;100166.31;5091103;28;20292;-67
2021/07/13 11:56:26;;;;;;;;;;;;;;;32.96;55.26;100160.50;5089399;28;19931;-69
2021/07/13 11:58:52;;;;;;;;;;;;;;;33.58;64.44;100165.75;5091117;28;19942;-68
2021/07/13 12:01:21;;;;;;;;;;;;;;;33.82;51.72;100165.88;5073283;28;20015;-68
2021/07/13 12:03:47;;;;;;;;;;;;;;;34.29;46.21;100160.66;5070825;28;19924;-68
2021/07/13 12:06:16;;;;;;;;;;;;;;;33.40;47.00;100170.13;5074439;28;19925;-69
2021/07/13 12:08:43;;;;;;;;;;;;;;;32.67;50.98;100169.56;5074597;28;20020;-66
2021/07/13 12:11:10;;;;;;;;;;;;;;;32.05;58.34;100166.84;5075039;28;20410;-67
2021/07/13 12:13:38;;;;;;;;;;;;;;;31.98;57.97;100167.13;5074576;28;20524;-68
2021/07/13 12:16:15;;;;;;;;;;;;;;;31.52;52.59;100165.13;5088213;28;19928;-67
2021/07/13 12:18:41;;;;;;;;;;;;;;;31.42;62.06;100169.88;5081084;28;19940;-67
2021/07/13 12:21:07;;;;;;;;;;;;;;;31.05;59.29;100164.19;5074799;28;19991;-68
2021/07/13 12:23:36;;;;;;;;;;;;;;;31.26;65.36;100167.03;5075635;28;19970;-67
2021/07/13 12:26:17;;;;;;;;;;;;;;;31.00;60.24;100166.06;5079321;28;19959;-68
2021/07/13 12:28:58;;;;;;;;;;;;;;;32.32;59.03;100154.50;5085279;28;20383;-67
2021/07/13 12:31:24;;;;;;;;;;;;;;;33.42;48.07;100156.59;5094443;28;20022;-67
2021/07/13 12:33:51;;;;;;;;;;;;;;;33.94;47.07;100157.91;5078716;28;19933;-67